createdAt,value
2017-07-04T00:00:29.665Z,15.30
2017-07-04T00:01:23.745Z,15.32
2017-07-04T00:02:11.726Z,15.31
2017-07-04T00:03:12.784Z,15.28
2017-07-04T00:04:06.861Z,15.28
2017-07-04T00:05:06.835Z,15.28
2017-07-04T00:06:01.891Z,15.28
2017-07-04T00:06:49.990Z,15.26
2017-07-04T00:07:37.984Z,15.22
2017-07-04T00:08:26.016Z,15.20
2017-07-04T00:09:15.045Z,15.16
2017-07-04T00:10:03.165Z,15.04
2017-07-04T00:10:51.491Z,14.96
2017-07-04T00:11:39.189Z,14.94
2017-07-04T00:12:28.309Z,14.92
2017-07-04T00:13:16.334Z,14.88
2017-07-04T00:14:05.325Z,14.86
2017-07-04T00:14:53.326Z,14.82
2017-07-04T00:15:41.427Z,14.76
2017-07-04T00:16:30.497Z,14.74
2017-07-04T00:17:18.552Z,14.73
2017-07-04T00:18:06.513Z,14.72
2017-07-04T00:18:55.649Z,14.71
2017-07-04T00:19:43.694Z,14.69
2017-07-04T00:20:32.722Z,14.65
2017-07-04T00:21:20.785Z,14.65
2017-07-04T00:22:08.841Z,14.62
2017-07-04T00:22:56.829Z,14.63
2017-07-04T00:23:45.047Z,14.62
2017-07-04T00:24:50.856Z,14.60
2017-07-04T00:25:45.889Z,14.59
2017-07-04T00:26:45.972Z,14.58
2017-07-04T00:27:40.034Z,14.55
2017-07-04T00:28:40.044Z,14.53
2017-07-04T00:29:35.130Z,14.50
2017-07-04T00:30:30.104Z,14.50
2017-07-04T00:31:24.164Z,14.49
2017-07-04T00:32:13.283Z,14.50
2017-07-04T00:33:02.221Z,14.50
2017-07-04T00:33:51.224Z,14.50
2017-07-04T00:34:51.387Z,14.46
2017-07-04T00:35:45.357Z,14.45
2017-07-04T00:36:45.437Z,14.46
2017-07-04T00:37:40.466Z,14.46
2017-07-04T00:38:35.532Z,14.42
2017-07-04T00:39:36.540Z,14.36
2017-07-04T00:40:36.589Z,14.32
2017-07-04T00:41:36.649Z,14.30
2017-07-04T00:42:31.632Z,14.26
2017-07-04T00:43:25.692Z,14.19
2017-07-04T00:44:25.673Z,14.14
2017-07-04T00:45:20.733Z,14.08
2017-07-04T00:46:21.112Z,14.06
2017-07-04T00:47:14.797Z,14.02
2017-07-04T00:48:14.894Z,13.96
2017-07-04T00:49:09.892Z,13.94
2017-07-04T00:50:04.962Z,13.92
2017-07-04T00:51:05.955Z,13.90
2017-07-04T00:52:06.119Z,13.85
2017-07-04T00:53:00.980Z,13.79
2017-07-04T00:54:01.133Z,13.76
2017-07-04T00:54:55.099Z,13.74
2017-07-04T00:55:55.486Z,13.68
2017-07-04T00:56:50.225Z,13.66
2017-07-04T00:57:45.426Z,13.59
2017-07-04T00:58:45.271Z,13.56
2017-07-04T00:59:40.395Z,13.52
2017-07-04T01:00:35.548Z,13.48
2017-07-04T01:01:35.348Z,13.42
2017-07-04T01:02:30.444Z,13.34
2017-07-04T01:03:24.475Z,13.36
2017-07-04T01:04:24.558Z,13.37
2017-07-04T01:05:24.582Z,13.32
2017-07-04T01:06:19.900Z,13.30
2017-07-04T01:07:14.592Z,13.28
2017-07-04T01:08:03.656Z,13.30
2017-07-04T01:09:03.793Z,13.31
2017-07-04T01:09:51.708Z,13.28
2017-07-04T01:10:40.788Z,13.25
2017-07-04T01:11:28.806Z,13.24
2017-07-04T01:12:16.851Z,13.22
2017-07-04T01:13:05.913Z,13.19
2017-07-04T01:13:53.983Z,13.19
2017-07-04T01:14:42.117Z,13.17
2017-07-04T01:15:31.440Z,13.16
2017-07-04T01:16:19.013Z,13.13
2017-07-04T01:17:13.079Z,13.14
2017-07-04T01:18:13.193Z,13.07
2017-07-04T01:19:13.197Z,13.07
2017-07-04T01:20:13.425Z,13.06
2017-07-04T01:21:19.278Z,13.06
2017-07-04T01:22:08.267Z,13.06
2017-07-04T01:22:56.378Z,13.05
2017-07-04T01:23:45.357Z,13.03
2017-07-04T01:24:33.423Z,13.01
2017-07-04T01:25:27.416Z,12.96
2017-07-04T01:26:27.441Z,12.93
2017-07-04T01:27:27.547Z,12.91
2017-07-04T01:28:22.579Z,12.86
2017-07-04T01:29:16.642Z,12.79
2017-07-04T01:30:17.643Z,12.71
2017-07-04T01:31:18.740Z,12.64
2017-07-04T01:32:18.756Z,12.54
2017-07-04T01:33:18.733Z,12.46
2017-07-04T01:34:13.760Z,12.36
2017-07-04T01:35:07.787Z,12.28
2017-07-04T01:36:07.867Z,12.20
2017-07-04T01:37:02.951Z,12.11
2017-07-04T01:38:02.980Z,12.00
2017-07-04T01:38:56.957Z,11.96
2017-07-04T01:39:58.020Z,11.90
2017-07-04T01:40:59.431Z,11.87
2017-07-04T01:41:54.111Z,11.82
2017-07-04T01:42:48.171Z,11.78
2017-07-04T01:43:48.213Z,11.73
2017-07-04T01:44:43.217Z,11.76
2017-07-04T01:45:43.237Z,11.78
2017-07-04T01:46:37.288Z,11.78
2017-07-04T01:47:37.421Z,11.84
2017-07-04T01:48:32.379Z,11.90
2017-07-04T01:49:27.394Z,11.94
2017-07-04T01:50:27.435Z,11.98
2017-07-04T01:51:22.485Z,11.96
2017-07-04T01:52:22.543Z,11.96
2017-07-04T01:53:22.573Z,11.94
2017-07-04T01:54:22.572Z,11.94
2017-07-04T01:55:16.675Z,11.96
2017-07-04T01:56:16.633Z,11.96
2017-07-04T01:57:11.626Z,11.98
2017-07-04T01:58:06.714Z,12.00
2017-07-04T01:59:06.762Z,12.02
2017-07-04T02:00:01.845Z,12.05
2017-07-04T02:00:57.040Z,12.06
2017-07-04T02:01:57.864Z,12.06
2017-07-04T02:02:57.864Z,12.08
2017-07-04T02:03:57.903Z,12.08
2017-07-04T02:04:52.916Z,12.12
2017-07-04T02:05:47.040Z,12.16
2017-07-04T02:06:47.965Z,12.19
2017-07-04T02:07:48.094Z,12.25
2017-07-04T02:08:48.105Z,12.30
2017-07-04T02:09:43.123Z,12.31
2017-07-04T02:10:37.217Z,12.37
2017-07-04T02:11:37.223Z,12.40
2017-07-04T02:12:32.177Z,12.42
2017-07-04T02:13:27.337Z,12.43
2017-07-04T02:14:33.333Z,12.45
2017-07-04T02:15:33.404Z,12.44
2017-07-04T02:16:33.437Z,12.44
2017-07-04T02:17:28.171Z,12.46
2017-07-04T02:18:27.465Z,12.46
2017-07-04T02:19:27.570Z,12.48
2017-07-04T02:20:27.577Z,12.50
2017-07-04T02:21:27.537Z,12.46
2017-07-04T02:22:22.580Z,12.49
2017-07-04T02:23:16.718Z,12.49
2017-07-04T02:24:16.666Z,12.49
2017-07-04T02:25:11.687Z,12.45
2017-07-04T02:26:11.714Z,12.45
2017-07-04T02:27:11.853Z,12.45
2017-07-04T02:28:17.907Z,12.47
2017-07-04T02:29:17.842Z,12.52
2017-07-04T02:30:18.188Z,12.55
2017-07-04T02:31:17.869Z,12.56
2017-07-04T02:32:11.935Z,12.59
2017-07-04T02:33:11.920Z,12.58
2017-07-04T02:34:07.059Z,12.60
2017-07-04T02:35:07.039Z,12.62
2017-07-04T02:36:07.027Z,12.62
2017-07-04T02:37:07.087Z,12.58
2017-07-04T02:38:01.290Z,12.55
2017-07-04T02:39:01.268Z,12.52
2017-07-04T02:39:56.369Z,12.52
2017-07-04T02:40:51.318Z,12.50
2017-07-04T02:41:51.287Z,12.44
2017-07-04T02:42:46.314Z,12.42
2017-07-04T02:43:41.321Z,12.40
2017-07-04T02:44:42.410Z,12.43
2017-07-04T02:45:43.493Z,12.42
2017-07-04T02:46:38.523Z,12.42
2017-07-04T02:47:32.562Z,12.44
2017-07-04T02:48:33.558Z,12.45
2017-07-04T02:49:28.531Z,12.46
2017-07-04T02:50:22.617Z,12.46
2017-07-04T02:51:22.680Z,12.50
2017-07-04T02:52:17.641Z,12.49
2017-07-04T02:53:17.714Z,12.56
2017-07-04T02:54:11.822Z,12.59
2017-07-04T02:55:12.072Z,12.61
2017-07-04T02:56:06.821Z,12.64
2017-07-04T02:57:07.012Z,12.64
2017-07-04T02:58:07.931Z,12.68
2017-07-04T02:59:07.937Z,12.67
2017-07-04T03:00:08.055Z,12.72
2017-07-04T03:01:02.057Z,12.71
2017-07-04T03:02:02.071Z,12.72
2017-07-04T03:02:57.141Z,12.74
2017-07-04T03:03:52.192Z,12.74
2017-07-04T03:04:52.197Z,12.76
2017-07-04T03:05:47.451Z,12.79
2017-07-04T03:06:42.233Z,12.81
2017-07-04T03:07:43.209Z,12.84
2017-07-04T03:08:43.286Z,12.86
2017-07-04T03:09:38.351Z,12.87
2017-07-04T03:10:38.450Z,12.88
2017-07-04T03:11:38.411Z,12.89
2017-07-04T03:12:44.492Z,12.88
2017-07-04T03:13:39.535Z,12.87
2017-07-04T03:14:33.568Z,12.88
2017-07-04T03:15:34.567Z,12.86
2017-07-04T03:16:29.624Z,12.90
2017-07-04T03:17:29.651Z,12.88
2017-07-04T03:18:29.657Z,12.86
2017-07-04T03:19:29.755Z,12.88
2017-07-04T03:20:29.761Z,12.90
2017-07-04T03:21:29.863Z,12.88
2017-07-04T03:22:29.818Z,12.90
2017-07-04T03:23:29.891Z,12.90
2017-07-04T03:24:29.857Z,12.97
2017-07-04T03:25:29.950Z,12.94
2017-07-04T03:26:29.925Z,12.98
2017-07-04T03:27:30.042Z,13.04
2017-07-04T03:28:36.130Z,13.03
2017-07-04T03:29:31.130Z,13.04
2017-07-04T03:30:25.130Z,13.08
2017-07-04T03:31:25.170Z,13.01
2017-07-04T03:32:20.224Z,13.08
2017-07-04T03:33:15.177Z,13.10
2017-07-04T03:34:16.537Z,13.06
2017-07-04T03:35:17.526Z,13.01
2017-07-04T03:36:17.310Z,13.06
2017-07-04T03:37:12.446Z,13.08
2017-07-04T03:38:12.462Z,13.08
2017-07-04T03:39:12.515Z,13.08
2017-07-04T03:40:12.820Z,13.12
2017-07-04T03:41:06.564Z,13.14
2017-07-04T03:42:06.541Z,13.14
2017-07-04T03:43:01.659Z,13.11
2017-07-04T03:43:56.604Z,13.13
2017-07-04T03:44:50.620Z,13.15
2017-07-04T03:45:50.693Z,13.20
2017-07-04T03:46:45.686Z,13.22
2017-07-04T03:47:40.811Z,13.21
2017-07-04T03:48:40.829Z,13.18
2017-07-04T03:49:35.992Z,13.23
2017-07-04T03:50:30.922Z,13.23
2017-07-04T03:51:24.958Z,13.23
2017-07-04T03:52:26.046Z,13.26
2017-07-04T03:53:20.028Z,13.29
2017-07-04T03:54:08.105Z,13.33
2017-07-04T03:54:56.126Z,13.32
2017-07-04T03:55:50.224Z,13.35
2017-07-04T03:56:44.233Z,13.35
2017-07-04T03:57:32.180Z,13.38
2017-07-04T03:58:21.328Z,13.38
2017-07-04T03:59:10.368Z,13.37
2017-07-04T03:59:59.473Z,13.46
2017-07-04T04:00:54.671Z,13.45
2017-07-04T04:01:48.412Z,13.41
2017-07-04T04:02:37.560Z,13.44
2017-07-04T04:03:31.546Z,13.43
2017-07-04T04:04:31.546Z,13.49
2017-07-04T04:05:25.699Z,13.47
2017-07-04T04:06:31.615Z,13.50
2017-07-04T04:07:20.698Z,13.52
2017-07-04T04:08:08.761Z,13.52
2017-07-04T04:09:03.834Z,13.50
2017-07-04T04:10:04.892Z,13.53
2017-07-04T04:11:05.805Z,13.56
2017-07-04T04:11:59.940Z,13.56
2017-07-04T04:12:59.940Z,13.56
2017-07-04T04:13:54.893Z,13.58
2017-07-04T04:14:50.104Z,13.56
2017-07-04T04:15:44.020Z,13.62
2017-07-04T04:16:44.162Z,13.59
2017-07-04T04:17:39.136Z,13.50
2017-07-04T04:18:34.158Z,13.50
2017-07-04T04:19:34.235Z,13.52
2017-07-04T04:20:29.260Z,13.47
2017-07-04T04:21:24.299Z,13.49
2017-07-04T04:22:18.590Z,13.42
2017-07-04T04:23:19.338Z,13.44
2017-07-04T04:24:14.527Z,13.50
2017-07-04T04:25:14.674Z,13.51
2017-07-04T04:26:14.765Z,13.48
2017-07-04T04:27:14.499Z,13.46
2017-07-04T04:28:14.571Z,13.48
2017-07-04T04:29:08.652Z,13.54
2017-07-04T04:30:08.611Z,13.46
2017-07-04T04:31:03.752Z,13.49
2017-07-04T04:31:58.702Z,13.54
2017-07-04T04:32:52.748Z,13.55
2017-07-04T04:33:52.847Z,13.54
2017-07-04T04:34:47.851Z,13.61
2017-07-04T04:35:42.835Z,13.66
2017-07-04T04:36:43.038Z,13.70
2017-07-04T04:37:37.981Z,13.67
2017-07-04T04:38:32.009Z,13.68
2017-07-04T04:39:32.148Z,13.82
2017-07-04T04:40:26.100Z,13.97
2017-07-04T04:41:20.149Z,14.06
2017-07-04T04:42:20.233Z,14.18
2017-07-04T04:43:14.249Z,14.21
2017-07-04T04:44:08.238Z,14.33
2017-07-04T04:44:57.301Z,14.35
2017-07-04T04:45:51.298Z,14.36
2017-07-04T04:46:45.455Z,14.42
2017-07-04T04:47:45.433Z,14.38
2017-07-04T04:48:40.421Z,14.43
2017-07-04T04:49:40.524Z,14.38
2017-07-04T04:50:34.577Z,14.33
2017-07-04T04:51:28.596Z,14.30
2017-07-04T04:52:28.585Z,14.32
2017-07-04T04:53:28.761Z,14.34
2017-07-04T04:54:16.719Z,14.38
2017-07-04T04:55:10.686Z,14.38
2017-07-04T04:56:06.049Z,14.41
2017-07-04T04:57:00.830Z,14.42
2017-07-04T04:57:54.883Z,14.43
2017-07-04T04:58:43.990Z,14.45
2017-07-04T04:59:37.991Z,14.38
2017-07-04T05:00:38.115Z,14.45
2017-07-04T05:01:38.354Z,14.44
2017-07-04T05:02:38.113Z,14.37
2017-07-04T05:03:38.196Z,14.38
2017-07-04T05:04:38.177Z,14.39
2017-07-04T05:05:33.267Z,14.42
2017-07-04T05:06:21.281Z,14.40
2017-07-04T05:07:15.329Z,14.35
2017-07-04T05:08:04.366Z,14.36
2017-07-04T05:08:52.369Z,14.34
2017-07-04T05:09:41.428Z,14.25
2017-07-04T05:10:35.490Z,14.16
2017-07-04T05:11:29.549Z,14.10
2017-07-04T05:12:23.741Z,14.12
2017-07-04T05:13:17.904Z,14.03
2017-07-04T05:14:06.683Z,14.09
2017-07-04T05:15:00.683Z,14.05
2017-07-04T05:15:54.718Z,14.08
2017-07-04T05:16:49.842Z,14.06
2017-07-04T05:17:43.796Z,14.04
2017-07-04T05:18:38.864Z,14.06
2017-07-04T05:19:32.997Z,14.10
2017-07-04T05:20:21.929Z,14.10
2017-07-04T05:21:22.020Z,14.14
2017-07-04T05:22:16.040Z,14.11
2017-07-04T05:23:11.223Z,14.17
2017-07-04T05:23:59.157Z,14.23
2017-07-04T05:24:53.269Z,14.24
2017-07-04T05:25:53.282Z,14.28
2017-07-04T05:26:48.290Z,14.25
2017-07-04T05:27:43.306Z,14.32
2017-07-04T05:28:37.702Z,14.38
2017-07-04T05:29:38.358Z,14.47
2017-07-04T05:30:27.485Z,14.49
2017-07-04T05:31:16.552Z,14.52
2017-07-04T05:32:11.596Z,14.56
2017-07-04T05:33:00.542Z,14.68
2017-07-04T05:33:54.688Z,14.68
2017-07-04T05:34:54.642Z,14.70
2017-07-04T05:35:49.723Z,14.76
2017-07-04T05:36:44.726Z,14.79
2017-07-04T05:37:44.788Z,14.83
2017-07-04T05:38:39.841Z,14.84
2017-07-04T05:39:34.893Z,14.95
2017-07-04T05:40:23.246Z,14.96
2017-07-04T05:41:17.921Z,14.96
2017-07-04T05:42:12.257Z,15.12
2017-07-04T05:43:07.049Z,15.20
2017-07-04T05:44:02.173Z,15.38
2017-07-04T05:45:02.199Z,15.50
2017-07-04T05:45:50.139Z,15.53
2017-07-04T05:46:44.207Z,15.67
2017-07-04T05:47:39.287Z,15.66
2017-07-04T05:48:33.333Z,15.53
2017-07-04T05:49:27.304Z,15.62
2017-07-04T05:50:21.423Z,15.49
2017-07-04T05:51:16.429Z,15.59
2017-07-04T05:52:16.445Z,15.57
2017-07-04T05:53:17.533Z,15.70
2017-07-04T05:54:17.562Z,15.82
2017-07-04T05:55:12.686Z,15.94
2017-07-04T05:56:06.622Z,16.02
2017-07-04T05:57:01.722Z,15.97
2017-07-04T05:57:50.720Z,16.02
2017-07-04T05:58:45.729Z,15.99
2017-07-04T05:59:39.847Z,16.01
2017-07-04T06:00:27.951Z,16.12
2017-07-04T06:01:16.164Z,16.14
2017-07-04T06:02:15.926Z,16.00
2017-07-04T06:03:10.953Z,16.07
2017-07-04T06:04:00.067Z,16.11
2017-07-04T06:04:55.173Z,16.10
2017-07-04T06:05:55.144Z,16.06
2017-07-04T06:06:50.145Z,16.06
2017-07-04T06:07:44.274Z,16.10
2017-07-04T06:08:39.235Z,16.02
2017-07-04T06:09:34.433Z,16.06
2017-07-04T06:10:23.796Z,15.97
2017-07-04T06:11:17.433Z,16.01
2017-07-04T06:12:12.433Z,16.08
2017-07-04T06:13:12.553Z,16.11
2017-07-04T06:14:07.541Z,16.08
2017-07-04T06:15:02.573Z,16.22
2017-07-04T06:15:51.622Z,16.17
2017-07-04T06:16:45.671Z,16.04
2017-07-04T06:17:39.760Z,15.97
2017-07-04T06:18:28.794Z,15.89
2017-07-04T06:19:22.895Z,15.84
2017-07-04T06:20:17.153Z,15.92
2017-07-04T06:21:11.886Z,16.02
2017-07-04T06:22:06.943Z,16.03
2017-07-04T06:22:56.010Z,16.03
2017-07-04T06:23:45.099Z,16.10
2017-07-04T06:24:45.044Z,16.09
2017-07-04T06:25:33.134Z,16.14
2017-07-04T06:26:27.172Z,16.30
2017-07-04T06:27:22.286Z,16.28
2017-07-04T06:28:11.554Z,16.28
2017-07-04T06:29:05.339Z,16.26
2017-07-04T06:30:06.281Z,16.30
2017-07-04T06:31:00.342Z,16.26
2017-07-04T06:31:54.449Z,16.09
2017-07-04T06:32:54.540Z,16.00
2017-07-04T06:33:48.597Z,16.04
2017-07-04T06:34:43.562Z,16.03
2017-07-04T06:35:44.512Z,15.91
2017-07-04T06:36:38.725Z,15.82
2017-07-04T06:37:26.713Z,15.84
2017-07-04T06:38:20.760Z,15.89
2017-07-04T06:39:14.814Z,15.82
2017-07-04T06:40:15.139Z,15.80
2017-07-04T06:41:08.862Z,15.82
2017-07-04T06:42:08.928Z,15.82
2017-07-04T06:42:57.905Z,15.80
2017-07-04T06:43:46.983Z,15.70
2017-07-04T06:44:48.019Z,15.69
2017-07-04T06:45:48.115Z,15.58
2017-07-04T06:46:43.089Z,15.59
2017-07-04T06:47:37.177Z,15.62
2017-07-04T06:48:32.286Z,15.60
2017-07-04T06:49:20.337Z,15.53
2017-07-04T06:50:14.759Z,15.54
2017-07-04T06:51:03.317Z,15.51
2017-07-04T06:51:58.414Z,15.48
2017-07-04T06:52:52.478Z,15.45
2017-07-04T06:53:46.485Z,15.48
2017-07-04T06:54:35.507Z,15.42
2017-07-04T06:55:35.714Z,15.36
2017-07-04T06:56:35.636Z,15.29
2017-07-04T06:57:24.668Z,15.32
2017-07-04T06:58:13.806Z,15.24
2017-07-04T06:59:01.796Z,15.25
2017-07-04T06:59:56.800Z,15.24
2017-07-04T07:00:51.936Z,15.16
2017-07-04T07:01:40.869Z,15.12
2017-07-04T07:02:36.047Z,15.20
2017-07-04T07:03:30.009Z,15.26
2017-07-04T07:04:25.087Z,15.29
2017-07-04T07:05:26.357Z,15.51
2017-07-04T07:06:21.114Z,15.66
2017-07-04T07:07:15.106Z,15.89
2017-07-04T07:08:15.246Z,16.22
2017-07-04T07:09:15.246Z,16.28
2017-07-04T07:10:09.261Z,16.30
2017-07-04T07:11:03.259Z,16.38
2017-07-04T07:11:57.382Z,16.36
2017-07-04T07:12:58.374Z,16.36
2017-07-04T07:13:52.458Z,16.29
2017-07-04T07:14:46.472Z,16.34
2017-07-04T07:15:40.572Z,16.37
2017-07-04T07:16:28.587Z,16.60
2017-07-04T07:17:22.636Z,16.70
2017-07-04T07:18:11.973Z,17.04
2017-07-04T07:19:00.697Z,17.00
2017-07-04T07:19:54.704Z,17.12
2017-07-04T07:20:49.785Z,17.26
2017-07-04T07:21:43.878Z,17.38
2017-07-04T07:22:38.954Z,17.50
2017-07-04T07:23:39.006Z,17.24
2017-07-04T07:24:34.059Z,17.22
2017-07-04T07:25:28.404Z,17.12
2017-07-04T07:26:23.101Z,16.98
2017-07-04T07:27:17.116Z,16.89
2017-07-04T07:28:11.304Z,16.68
2017-07-04T07:29:06.318Z,16.44
2017-07-04T07:29:54.267Z,16.48
2017-07-04T07:30:42.366Z,16.43
2017-07-04T07:31:30.318Z,16.39
2017-07-04T07:32:24.475Z,16.28
2017-07-04T07:33:13.785Z,16.32
2017-07-04T07:34:07.534Z,16.33
2017-07-04T07:34:55.578Z,16.47
2017-07-04T07:35:55.576Z,16.67
2017-07-04T07:36:50.639Z,16.76
2017-07-04T07:37:44.733Z,16.98
2017-07-04T07:38:33.900Z,17.10
2017-07-04T07:39:26.875Z,17.26
2017-07-04T07:40:14.946Z,17.36
2017-07-04T07:41:09.927Z,17.37
2017-07-04T07:41:58.926Z,17.34
2017-07-04T07:42:59.070Z,17.14
2017-07-04T07:44:00.084Z,16.98
2017-07-04T07:45:00.072Z,17.08
2017-07-04T07:45:54.104Z,16.99
2017-07-04T07:46:49.142Z,17.00
2017-07-04T07:47:43.267Z,16.84
2017-07-04T07:48:32.288Z,16.76
2017-07-04T07:49:21.294Z,16.55
2017-07-04T07:50:15.396Z,16.36
2017-07-04T07:51:09.424Z,16.31
2017-07-04T07:52:04.504Z,16.27
2017-07-04T07:53:04.578Z,16.27
2017-07-04T07:53:59.641Z,16.32
2017-07-04T07:54:59.693Z,16.44
2017-07-04T07:55:59.631Z,16.61
2017-07-04T07:56:54.712Z,16.67
2017-07-04T07:57:48.691Z,16.85
2017-07-04T07:58:44.035Z,17.03
2017-07-04T07:59:43.867Z,17.14
2017-07-04T08:00:38.818Z,17.01
2017-07-04T08:01:33.011Z,17.02
2017-07-04T08:02:26.992Z,17.08
2017-07-04T08:03:14.956Z,17.21
2017-07-04T08:04:15.023Z,17.31
2017-07-04T08:05:10.072Z,17.39
2017-07-04T08:05:59.207Z,17.48
2017-07-04T08:06:48.200Z,17.60
2017-07-04T08:07:43.246Z,17.70
2017-07-04T08:08:32.277Z,17.87
2017-07-04T08:09:20.337Z,18.20
2017-07-04T08:10:14.327Z,18.36
2017-07-04T08:11:14.630Z,18.32
2017-07-04T08:12:08.477Z,18.16
2017-07-04T08:13:02.589Z,18.21
2017-07-04T08:14:02.510Z,18.39
2017-07-04T08:14:57.656Z,18.73
2017-07-04T08:15:57.667Z,19.03
2017-07-04T08:16:52.768Z,19.33
2017-07-04T08:17:47.697Z,19.42
2017-07-04T08:18:41.850Z,19.34
2017-07-04T08:19:35.869Z,19.24
2017-07-04T08:20:35.908Z,19.15
2017-07-04T08:21:24.936Z,19.10
2017-07-04T08:22:19.025Z,19.11
2017-07-04T08:23:13.261Z,19.05
2017-07-04T08:24:08.105Z,18.82
2017-07-04T08:24:56.121Z,18.88
2017-07-04T08:25:44.228Z,18.84
2017-07-04T08:26:39.258Z,18.92
2017-07-04T08:27:34.378Z,18.90
2017-07-04T08:28:28.391Z,18.95
2017-07-04T08:29:17.427Z,18.92
2017-07-04T08:30:12.479Z,18.88
2017-07-04T08:31:12.546Z,18.68
2017-07-04T08:32:01.582Z,18.43
2017-07-04T08:32:55.664Z,18.19
2017-07-04T08:33:55.663Z,18.18
2017-07-04T08:34:49.692Z,18.16
2017-07-04T08:35:43.788Z,17.94
2017-07-04T08:36:37.836Z,17.89
2017-07-04T08:37:32.800Z,17.96
2017-07-04T08:38:27.972Z,17.98
2017-07-04T08:39:27.946Z,18.29
2017-07-04T08:40:16.040Z,18.74
2017-07-04T08:41:04.988Z,19.05
2017-07-04T08:42:05.140Z,19.47
2017-07-04T08:42:59.165Z,19.70
2017-07-04T08:44:01.124Z,19.72
2017-07-04T08:44:48.323Z,19.67
2017-07-04T08:45:37.361Z,19.64
2017-07-04T08:46:32.322Z,19.64
2017-07-04T08:47:27.335Z,19.57
2017-07-04T08:48:28.510Z,19.30
2017-07-04T08:49:17.804Z,19.42
2017-07-04T08:50:17.532Z,19.62
2017-07-04T08:51:17.558Z,19.66
2017-07-04T08:52:17.622Z,19.63
2017-07-04T08:53:11.656Z,19.68
2017-07-04T08:54:00.772Z,19.82
2017-07-04T08:55:00.852Z,20.04
2017-07-04T08:55:54.976Z,20.21
2017-07-04T08:56:55.900Z,20.48
2017-07-04T08:57:51.001Z,20.63
2017-07-04T08:58:45.053Z,20.64
2017-07-04T08:59:40.117Z,20.98
2017-07-04T09:00:35.327Z,21.06
2017-07-04T09:01:29.186Z,20.77
2017-07-04T09:02:29.184Z,20.74
2017-07-04T09:03:23.260Z,21.19
2017-07-04T09:04:12.276Z,21.34
2017-07-04T09:05:07.390Z,21.46
2017-07-04T09:06:07.713Z,21.67
2017-07-04T09:07:02.472Z,21.62
2017-07-04T09:07:51.490Z,21.62
2017-07-04T09:08:46.562Z,21.54
2017-07-04T09:09:40.654Z,21.13
2017-07-04T09:10:29.712Z,20.95
2017-07-04T09:11:18.685Z,20.76
2017-07-04T09:12:07.988Z,20.98
2017-07-04T09:13:01.829Z,21.55
2017-07-04T09:13:56.080Z,22.09
2017-07-04T09:14:44.089Z,22.31
2017-07-04T09:15:38.107Z,22.71
2017-07-04T09:16:32.160Z,22.98
2017-07-04T09:17:32.195Z,23.27
2017-07-04T09:18:27.374Z,23.26
2017-07-04T09:19:16.306Z,23.24
2017-07-04T09:20:11.359Z,23.18
2017-07-04T09:21:00.349Z,22.86
2017-07-04T09:21:55.476Z,22.82
2017-07-04T09:22:44.573Z,22.56
2017-07-04T09:23:33.511Z,22.46
2017-07-04T09:24:27.634Z,22.06
2017-07-04T09:25:23.003Z,21.63
2017-07-04T09:26:16.717Z,21.78
2017-07-04T09:27:11.116Z,22.24
2017-07-04T09:27:59.829Z,22.80
2017-07-04T09:28:53.994Z,23.04
2017-07-04T09:29:42.970Z,23.38
2017-07-04T09:30:31.071Z,23.57
2017-07-04T09:31:26.135Z,23.66
2017-07-04T09:32:26.615Z,23.80
2017-07-04T09:33:26.274Z,23.86
2017-07-04T09:34:26.344Z,23.67
2017-07-04T09:35:20.661Z,23.20
2017-07-04T09:36:20.404Z,23.03
2017-07-04T09:37:15.441Z,23.49
2017-07-04T09:38:09.695Z,23.80
2017-07-04T09:39:09.613Z,24.36
2017-07-04T09:40:04.697Z,25.06
2017-07-04T09:40:59.091Z,24.93
2017-07-04T09:41:52.858Z,24.14
2017-07-04T09:42:47.944Z,23.42
2017-07-04T09:43:41.953Z,23.24
2017-07-04T09:44:36.021Z,23.04
2017-07-04T09:45:25.505Z,22.87
2017-07-04T09:46:14.145Z,22.64
2017-07-04T09:47:03.389Z,22.64
2017-07-04T09:47:57.257Z,22.68
2017-07-04T09:48:51.606Z,23.04
2017-07-04T09:49:45.358Z,23.26
2017-07-04T09:50:33.402Z,23.45
2017-07-04T09:51:21.513Z,23.48
2017-07-04T09:52:15.650Z,23.23
2017-07-04T09:53:09.662Z,22.82
2017-07-04T09:54:09.752Z,22.62
2017-07-04T09:55:04.741Z,22.46
2017-07-04T09:55:58.874Z,22.35
2017-07-04T09:56:53.987Z,22.28
2017-07-04T09:57:47.889Z,21.71
2017-07-04T09:58:37.129Z,21.72
2017-07-04T09:59:26.037Z,21.92
2017-07-04T10:00:26.547Z,22.05
2017-07-04T10:01:21.160Z,21.91
2017-07-04T10:02:15.718Z,21.84
2017-07-04T10:03:09.297Z,21.84
2017-07-04T10:03:58.404Z,21.82
2017-07-04T10:04:47.784Z,21.62
2017-07-04T10:05:42.446Z,21.62
2017-07-04T10:06:36.508Z,21.69
2017-07-04T10:07:31.573Z,22.06
2017-07-04T10:08:25.661Z,22.36
2017-07-04T10:09:19.987Z,22.52
2017-07-04T10:10:14.249Z,22.50
2017-07-04T10:11:02.015Z,22.63
2017-07-04T10:11:56.018Z,22.34
2017-07-04T10:12:50.216Z,21.93
2017-07-04T10:13:43.946Z,21.76
2017-07-04T10:14:39.084Z,21.46
2017-07-04T10:15:33.045Z,21.24
2017-07-04T10:16:28.127Z,21.15
2017-07-04T10:17:22.176Z,21.26
2017-07-04T10:18:17.254Z,21.34
2017-07-04T10:19:05.271Z,21.59
2017-07-04T10:19:54.458Z,21.56
2017-07-04T10:20:49.563Z,21.53
2017-07-04T10:21:39.078Z,21.91
2017-07-04T10:22:32.522Z,22.26
2017-07-04T10:23:20.651Z,22.64
2017-07-04T10:24:08.743Z,22.86
2017-07-04T10:25:02.892Z,22.89
2017-07-04T10:25:52.004Z,22.74
2017-07-04T10:26:45.823Z,22.74
2017-07-04T10:27:40.866Z,22.04
2017-07-04T10:28:30.105Z,21.69
2017-07-04T10:29:30.025Z,21.46
2017-07-04T10:30:24.310Z,21.59
2017-07-04T10:31:13.199Z,21.84
2017-07-04T10:32:02.827Z,22.36
2017-07-04T10:32:51.364Z,22.92
2017-07-04T10:33:46.217Z,23.40
2017-07-04T10:34:40.455Z,23.88
2017-07-04T10:35:35.373Z,23.80
2017-07-04T10:36:29.639Z,23.76
2017-07-04T10:37:18.738Z,23.44
2017-07-04T10:38:13.682Z,22.95
2017-07-04T10:39:08.113Z,22.49
2017-07-04T10:40:03.062Z,22.48
2017-07-04T10:40:51.310Z,22.68
2017-07-04T10:41:40.142Z,22.76
2017-07-04T10:42:28.942Z,22.42
2017-07-04T10:43:24.069Z,22.00
2017-07-04T10:44:18.049Z,21.83
2017-07-04T10:45:13.207Z,21.75
2017-07-04T10:46:08.197Z,21.92
2017-07-04T10:47:02.236Z,22.60
2017-07-04T10:47:51.375Z,22.46
2017-07-04T10:48:51.312Z,22.04
2017-07-04T10:49:46.380Z,22.02
2017-07-04T10:50:35.442Z,21.98
2017-07-04T10:51:23.640Z,21.88
2017-07-04T10:52:18.728Z,21.91
2017-07-04T10:53:12.738Z,22.02
2017-07-04T10:54:01.744Z,22.16
2017-07-04T10:54:55.856Z,22.16
2017-07-04T10:55:50.838Z,22.19
2017-07-04T10:56:50.974Z,22.25
2017-07-04T10:57:39.001Z,22.11
2017-07-04T10:58:33.007Z,21.78
2017-07-04T10:59:27.269Z,21.64
2017-07-04T11:00:27.357Z,21.75
2017-07-04T11:01:16.500Z,21.82
2017-07-04T11:02:11.357Z,21.80
2017-07-04T11:03:00.428Z,21.90
2017-07-04T11:03:55.354Z,22.00
2017-07-04T11:04:50.480Z,21.86
2017-07-04T11:05:44.510Z,21.90
2017-07-04T11:06:38.612Z,22.28
2017-07-04T11:07:38.580Z,22.58
2017-07-04T11:08:33.736Z,22.90
2017-07-04T11:09:27.806Z,23.32
2017-07-04T11:10:22.089Z,23.80
2017-07-04T11:11:15.807Z,24.60
2017-07-04T11:12:15.943Z,24.94
2017-07-04T11:13:05.059Z,25.19
2017-07-04T11:14:00.029Z,25.62
2017-07-04T11:14:54.203Z,26.03
2017-07-04T11:15:54.228Z,26.40
2017-07-04T11:16:43.351Z,26.35
2017-07-04T11:17:38.392Z,26.24
2017-07-04T11:18:27.511Z,26.08
2017-07-04T11:19:21.591Z,25.98
2017-07-04T11:20:15.596Z,25.72
2017-07-04T11:21:15.959Z,25.26
2017-07-04T11:22:09.793Z,24.76
2017-07-04T11:22:58.875Z,24.66
2017-07-04T11:23:52.938Z,24.69
2017-07-04T11:24:47.053Z,24.64
2017-07-04T11:25:42.328Z,24.46
2017-07-04T11:26:37.086Z,24.44
2017-07-04T11:27:32.157Z,24.34
2017-07-04T11:28:26.261Z,24.16
2017-07-04T11:29:21.222Z,24.42
2017-07-04T11:30:15.365Z,24.35
2017-07-04T11:31:04.727Z,24.56
2017-07-04T11:31:53.488Z,24.50
2017-07-04T11:32:42.577Z,24.65
2017-07-04T11:33:43.642Z,24.98
2017-07-04T11:34:32.740Z,25.60
2017-07-04T11:35:27.088Z,26.20
2017-07-04T11:36:15.197Z,26.22
2017-07-04T11:37:09.997Z,25.76
2017-07-04T11:37:59.131Z,25.32
2017-07-04T11:38:54.268Z,24.66
2017-07-04T11:39:48.512Z,24.47
2017-07-04T11:40:42.435Z,24.06
2017-07-04T11:41:36.364Z,24.26
2017-07-04T11:42:30.364Z,24.17
2017-07-04T11:43:30.457Z,23.98
2017-07-04T11:44:25.525Z,23.93
2017-07-04T11:45:19.480Z,24.14
2017-07-04T11:46:13.649Z,24.46